Time;durP1;ratioP1;P1;durP2;ratioP2;P2;SDS_P1;SDS_P2;PMS_P1;PMS_P2;Temp;Humidity;BMP_temperature;BMP_pressure;BME280_temperature;BME280_humidity;BME280_pressure;Samples;Min_cycle;Max_cycle;Signal;HPM_P1;HPM_P2
2023/12/16 00:02:17;;;;;;;11.10;9.90;;;7.20;99.90;;;;;;5022029;28;20521;-81
2023/12/16 00:05:00;;;;;;;11.30;9.33;;;7.10;99.90;;;;;;5019028;28;20454;-79
2023/12/16 00:07:34;;;;;;;9.40;8.53;;;7.10;99.90;;;;;;5021371;28;20488;-79
2023/12/16 00:10:02;;;;;;;10.77;9.67;;;7.00;99.90;;;;;;5021550;28;20518;-82
2023/12/16 00:12:30;;;;;;;10.57;9.60;;;7.10;99.90;;;;;;5019893;28;20543;-79
2023/12/16 00:15:02;;;;;;;12.93;10.40;;;7.10;99.90;;;;;;5021280;28;20797;-79
2023/12/16 00:17:33;;;;;;;9.70;8.80;;;7.10;99.90;;;;;;5021683;28;20511;-80
2023/12/16 00:20:08;;;;;;;14.00;10.70;;;7.00;99.90;;;;;;5023375;28;20851;-79
2023/12/16 00:22:45;;;;;;;12.87;11.57;;;7.00;99.90;;;;;;5025700;28;20503;-80
2023/12/16 00:25:14;;;;;;;13.93;12.63;;;7.00;99.90;;;;;;5029632;28;20490;-79
2023/12/16 00:27:40;;;;;;;16.17;13.20;;;7.20;99.90;;;;;;5020684;28;20437;-80
2023/12/16 00:30:08;;;;;;;14.07;11.87;;;7.00;99.90;;;;;;5021774;28;20965;-80
2023/12/16 00:32:35;;;;;;;12.53;11.33;;;7.00;99.90;;;;;;5018906;28;20568;-81
2023/12/16 00:35:03;;;;;;;12.30;11.00;;;7.00;99.90;;;;;;5020027;28;20495;-81
2023/12/16 00:37:30;;;;;;;15.50;12.03;;;7.00;99.90;;;;;;5019886;28;20943;-81
2023/12/16 00:39:57;;;;;;;12.03;10.73;;;7.00;99.90;;;;;;5018953;28;20529;-80
2023/12/16 00:42:23;;;;;;;12.20;11.10;;;7.10;99.90;;;;;;5018187;28;20499;-81
2023/12/16 00:44:50;;;;;;;12.40;11.00;;;7.10;99.90;;;;;;5019720;28;20456;-80
2023/12/16 00:47:17;;;;;;;12.57;11.07;;;7.10;99.90;;;;;;5018491;28;20441;-80
2023/12/16 00:49:43;;;;;;;13.33;12.00;;;7.10;99.90;;;;;;5020694;28;20464;-80
2023/12/16 00:52:11;;;;;;;12.60;11.47;;;7.10;99.90;;;;;;5020430;28;20859;-80
2023/12/16 00:54:38;;;;;;;12.90;11.60;;;7.00;99.90;;;;;;5019224;28;20451;-80
2023/12/16 00:57:07;;;;;;;11.00;10.00;;;7.10;99.90;;;;;;5019648;28;20439;-80
2023/12/16 00:59:33;;;;;;;12.13;10.90;;;7.00;99.90;;;;;;5018681;28;20474;-80
2023/12/16 01:02:01;;;;;;;13.33;12.00;;;7.00;99.90;;;;;;5018278;28;20462;-79
2023/12/16 01:04:27;;;;;;;19.70;11.43;;;7.00;99.90;;;;;;5018610;28;20912;-80
2023/12/16 01:06:54;;;;;;;13.10;11.90;;;7.00;99.90;;;;;;5019690;28;20462;-81
2023/12/16 01:09:24;;;;;;;12.23;11.23;;;7.00;99.90;;;;;;5019944;28;20445;-81
2023/12/16 01:11:51;;;;;;;13.27;11.93;;;7.00;99.90;;;;;;5019618;28;20535;-80
2023/12/16 01:14:19;;;;;;;12.80;11.50;;;7.00;99.90;;;;;;5020813;28;20450;-79
2023/12/16 01:16:45;;;;;;;13.07;10.80;;;7.00;99.90;;;;;;5019762;28;20965;-81
2023/12/16 01:19:12;;;;;;;12.33;11.13;;;7.00;99.90;;;;;;5021183;28;20434;-80
2023/12/16 01:21:41;;;;;;;12.93;11.73;;;7.00;99.90;;;;;;5019734;28;20538;-79
2023/12/16 01:24:08;;;;;;;14.30;12.90;;;7.00;99.90;;;;;;5021973;28;20453;-81
2023/12/16 01:26:36;;;;;;;14.47;13.03;;;6.90;99.90;;;;;;5038637;28;20816;-81
2023/12/16 01:29:03;;;;;;;13.73;12.43;;;6.90;99.90;;;;;;5038360;28;20463;-81
2023/12/16 01:31:29;;;;;;;12.43;11.33;;;6.80;99.90;;;;;;5037791;28;20707;-82
2023/12/16 01:33:59;;;;;;;14.63;12.10;;;6.80;99.90;;;;;;5037011;28;20479;-81
2023/12/16 01:36:26;;;;;;;11.77;10.77;;;6.80;99.90;;;;;;5036488;28;20447;-79
2023/12/16 01:38:52;;;;;;;13.80;12.33;;;6.90;99.90;;;;;;5037186;28;20436;-81
2023/12/16 01:41:19;;;;;;;13.57;12.20;;;6.90;99.90;;;;;;5037624;28;20457;-80
2023/12/16 01:43:47;;;;;;;12.57;11.47;;;6.90;99.90;;;;;;5037667;28;20522;-81
2023/12/16 01:46:15;;;;;;;12.57;11.10;;;6.80;99.90;;;;;;5032549;28;20458;-80
2023/12/16 01:48:42;;;;;;;12.63;11.43;;;6.90;99.90;;;;;;5021686;28;20443;-80
2023/12/16 01:51:09;;;;;;;13.97;12.43;;;6.90;99.90;;;;;;5023460;28;20490;-80
2023/12/16 01:53:36;;;;;;;13.90;11.53;;;6.90;99.90;;;;;;5020834;28;20486;-80
2023/12/16 01:56:04;;;;;;;12.03;10.73;;;7.00;99.90;;;;;;5020366;28;20435;-80
2023/12/16 01:58:31;;;;;;;11.53;10.53;;;7.00;99.90;;;;;;5019961;28;20445;-81
2023/12/16 02:00:59;;;;;;;12.17;11.07;;;7.00;99.90;;;;;;5018710;28;20489;-81
2023/12/16 02:03:28;;;;;;;11.87;10.77;;;7.00;99.90;;;;;;5020301;28;20445;-81
2023/12/16 02:05:55;;;;;;;12.70;11.40;;;6.90;99.90;;;;;;5019056;28;20443;-80
2023/12/16 02:08:22;;;;;;;12.87;11.53;;;6.90;99.90;;;;;;5017398;28;20440;-79
2023/12/16 02:10:48;;;;;;;12.43;11.13;;;6.90;99.90;;;;;;5018009;28;20472;-80
2023/12/16 02:13:15;;;;;;;13.57;11.70;;;6.90;99.90;;;;;;5018596;28;20526;-81
2023/12/16 02:15:42;;;;;;;11.93;10.80;;;6.90;99.90;;;;;;5017855;28;20458;-81
2023/12/16 02:18:11;;;;;;;12.40;11.10;;;6.90;99.90;;;;;;5018559;28;20952;-79
2023/12/16 02:20:38;;;;;;;13.53;12.27;;;6.90;99.90;;;;;;5019020;28;20603;-80
2023/12/16 02:23:09;;;;;;;12.87;11.67;;;6.90;99.90;;;;;;5016624;28;20506;-79
2023/12/16 02:25:37;;;;;;;12.40;11.20;;;6.90;99.90;;;;;;5016341;28;20444;-79
2023/12/16 02:28:04;;;;;;;13.20;11.90;;;6.90;99.90;;;;;;5020079;28;20440;-80
2023/12/16 02:30:31;;;;;;;11.90;10.73;;;6.90;99.90;;;;;;5017063;28;20464;-79
2023/12/16 02:32:58;;;;;;;12.00;10.80;;;6.80;99.90;;;;;;5018137;28;20999;-79
2023/12/16 02:35:24;;;;;;;13.43;11.53;;;6.80;99.90;;;;;;5016924;28;20442;-80
2023/12/16 02:37:51;;;;;;;12.20;10.93;;;6.80;99.90;;;;;;5016729;28;20455;-79
2023/12/16 02:40:18;;;;;;;10.83;9.87;;;6.80;99.90;;;;;;5019232;28;20462;-79
2023/12/16 02:42:46;;;;;;;11.83;10.63;;;6.80;99.90;;;;;;5018817;28;20440;-80
2023/12/16 02:45:13;;;;;;;11.93;10.93;;;6.80;99.90;;;;;;5020527;28;20450;-80
2023/12/16 02:47:42;;;;;;;12.70;11.60;;;6.80;99.90;;;;;;5014235;28;20520;-80
2023/12/16 02:50:09;;;;;;;11.83;10.60;;;6.80;99.90;;;;;;5016184;28;20572;-79
2023/12/16 02:52:36;;;;;;;13.00;11.80;;;6.90;99.90;;;;;;5016644;28;20486;-80
2023/12/16 02:55:03;;;;;;;12.20;11.00;;;6.90;99.90;;;;;;5017711;28;20439;-80
2023/12/16 02:57:30;;;;;;;12.70;11.40;;;6.90;99.90;;;;;;5015147;28;20436;-79
2023/12/16 02:59:58;;;;;;;12.60;11.40;;;6.90;99.90;;;;;;5016375;28;20478;-79
2023/12/16 03:02:25;;;;;;;12.83;11.53;;;6.90;99.90;;;;;;5015444;28;20489;-81
2023/12/16 03:04:52;;;;;;;13.33;11.93;;;6.90;99.90;;;;;;5015858;28;20446;-79
2023/12/16 03:07:18;;;;;;;12.77;11.50;;;6.80;99.90;;;;;;5015689;28;20458;-79
2023/12/16 03:09:45;;;;;;;13.30;12.10;;;6.80;99.90;;;;;;5014240;28;20461;-80
2023/12/16 03:12:12;;;;;;;16.93;12.33;;;6.80;99.90;;;;;;5019270;28;20496;-81
2023/12/16 03:14:41;;;;;;;13.53;12.20;;;6.80;99.90;;;;;;5016630;28;20491;-81
2023/12/16 03:17:09;;;;;;;13.80;12.40;;;6.80;99.90;;;;;;5016935;28;20815;-79
2023/12/16 03:19:35;;;;;;;13.23;11.77;;;6.80;99.90;;;;;;5016724;28;20453;-79
2023/12/16 03:22:03;;;;;;;13.27;11.93;;;6.80;99.90;;;;;;5015943;28;20444;-80
2023/12/16 03:24:29;;;;;;;12.77;11.63;;;6.80;99.90;;;;;;5017713;28;20441;-80
2023/12/16 03:26:56;;;;;;;12.73;11.53;;;6.80;99.90;;;;;;5029288;28;20445;-80
2023/12/16 03:29:23;;;;;;;13.73;11.70;;;6.80;99.90;;;;;;5029253;28;20435;-79
2023/12/16 03:31:50;;;;;;;14.03;11.37;;;6.80;99.90;;;;;;5023635;28;20441;-79
2023/12/16 03:34:18;;;;;;;11.57;10.50;;;6.80;99.90;;;;;;5017593;28;20502;-80
2023/12/16 03:36:44;;;;;;;12.53;11.23;;;6.80;99.90;;;;;;5015738;28;20530;-80
2023/12/16 03:39:12;;;;;;;11.67;10.53;;;6.80;99.90;;;;;;5016811;28;20809;-79
2023/12/16 03:41:40;;;;;;;11.77;10.63;;;6.80;99.90;;;;;;5017452;28;20476;-79
2023/12/16 03:44:07;;;;;;;16.23;11.60;;;6.80;99.90;;;;;;5017624;28;20550;-79
2023/12/16 03:46:33;;;;;;;9.70;8.80;;;6.80;99.90;;;;;;5014597;28;20452;-78
2023/12/16 03:49:00;;;;;;;10.93;9.40;;;6.80;99.90;;;;;;5014493;28;20935;-81
2023/12/16 03:51:28;;;;;;;11.03;9.60;;;6.80;99.90;;;;;;5015490;28;20525;-80
2023/12/16 03:53:55;;;;;;;10.67;8.60;;;6.80;99.90;;;;;;5015178;28;21012;-79
2023/12/16 03:56:21;;;;;;;8.63;7.93;;;6.80;99.90;;;;;;5016035;28;20832;-81
2023/12/16 03:58:48;;;;;;;8.90;7.67;;;6.70;99.90;;;;;;5012604;28;20435;-79
2023/12/16 04:01:14;;;;;;;9.00;8.13;;;6.80;99.90;;;;;;5014665;28;20467;-79
2023/12/16 04:03:40;;;;;;;9.37;8.57;;;6.80;99.90;;;;;;5015996;28;20520;-79
2023/12/16 04:06:11;;;;;;;8.13;7.43;;;6.80;99.90;;;;;;5013597;28;20275;-79
2023/12/16 04:08:41;;;;;;;7.97;7.17;;;6.80;99.90;;;;;;5015295;28;20783;-79
2023/12/16 04:11:07;;;;;;;7.23;6.53;;;6.80;99.90;;;;;;5016405;28;20979;-80
2023/12/16 04:13:35;;;;;;;7.63;6.80;;;6.80;99.90;;;;;;5014350;28;20475;-79
2023/12/16 04:16:03;;;;;;;8.33;7.60;;;6.80;99.90;;;;;;5016308;28;20518;-79
2023/12/16 04:18:30;;;;;;;9.00;8.20;;;6.80;99.90;;;;;;5014360;28;20514;-81
2023/12/16 04:20:57;;;;;;;9.00;8.20;;;6.80;99.90;;;;;;5015181;28;20552;-81
2023/12/16 04:23:24;;;;;;;8.73;8.03;;;6.80;99.90;;;;;;5014456;28;20512;-80
2023/12/16 04:25:52;;;;;;;9.07;8.17;;;6.80;99.90;;;;;;5014295;28;20505;-79
2023/12/16 04:28:19;;;;;;;8.00;7.30;;;6.80;99.90;;;;;;5014693;28;20445;-79
2023/12/16 04:30:46;;;;;;;8.97;8.20;;;6.80;99.90;;;;;;5013373;28;20493;-80
2023/12/16 04:33:12;;;;;;;8.03;7.23;;;6.80;99.90;;;;;;5015204;28;20491;-80
2023/12/16 04:35:39;;;;;;;8.57;7.87;;;6.80;99.90;;;;;;5015944;28;20971;-80
2023/12/16 04:38:06;;;;;;;10.30;9.07;;;6.80;99.90;;;;;;5014774;28;20431;-80
2023/12/16 04:40:33;;;;;;;9.37;8.17;;;6.80;99.90;;;;;;5024228;28;20448;-79
2023/12/16 04:43:01;;;;;;;10.47;7.30;;;6.80;99.90;;;;;;5030030;28;20439;-79
2023/12/16 04:45:28;;;;;;;7.57;6.70;;;6.90;99.90;;;;;;5015870;28;20448;-79
2023/12/16 04:47:54;;;;;;;8.77;7.97;;;6.80;99.90;;;;;;5014887;28;20523;-79
2023/12/16 04:50:21;;;;;;;7.27;6.67;;;6.90;99.90;;;;;;5016729;28;20461;-81
2023/12/16 04:52:48;;;;;;;8.27;7.57;;;6.90;99.90;;;;;;5015929;28;20443;-80
2023/12/16 04:55:15;;;;;;;7.60;7.00;;;6.90;99.90;;;;;;5016815;28;20973;-81
2023/12/16 04:57:42;;;;;;;8.60;6.43;;;7.10;99.90;;;;;;5018961;28;20482;-79
2023/12/16 05:00:12;;;;;;;7.37;6.77;;;6.80;99.90;;;;;;5015517;28;20473;-81
2023/12/16 05:02:38;;;;;;;7.73;7.03;;;6.80;99.90;;;;;;5016065;28;20450;-81
2023/12/16 05:05:05;;;;;;;8.33;7.60;;;6.80;99.90;;;;;;5015570;28;20437;-80
2023/12/16 05:07:32;;;;;;;9.67;8.77;;;6.80;99.90;;;;;;5014957;28;20871;-80
2023/12/16 05:09:59;;;;;;;7.77;7.07;;;6.80;99.90;;;;;;5013890;28;20465;-81
2023/12/16 05:12:25;;;;;;;7.57;6.97;;;6.70;99.90;;;;;;5018557;28;20443;-81
2023/12/16 05:14:52;;;;;;;8.53;7.83;;;6.70;99.90;;;;;;5017644;28;20484;-80
2023/12/16 05:17:22;;;;;;;8.40;7.70;;;6.70;99.90;;;;;;5016767;28;20443;-80
2023/12/16 05:19:49;;;;;;;8.30;7.40;;;6.70;99.90;;;;;;5018170;28;20475;-80
2023/12/16 05:22:16;;;;;;;8.03;7.20;;;6.70;99.90;;;;;;5017644;28;20514;-80
2023/12/16 05:24:42;;;;;;;9.60;8.50;;;6.70;99.90;;;;;;5018245;28;20518;-80
2023/12/16 05:27:09;;;;;;;8.50;7.43;;;6.70;99.90;;;;;;5017502;28;20513;-79
2023/12/16 05:29:35;;;;;;;9.37;7.50;;;6.70;99.90;;;;;;5017407;28;20449;-81
2023/12/16 05:32:02;;;;;;;8.00;7.20;;;6.70;99.90;;;;;;5015933;28;20495;-80
2023/12/16 05:34:30;;;;;;;8.37;7.13;;;6.70;99.90;;;;;;5016036;28;20523;-80
2023/12/16 05:36:57;;;;;;;6.47;5.97;;;6.70;99.90;;;;;;5026307;28;20951;-80
2023/12/16 05:39:24;;;;;;;6.60;6.00;;;6.70;99.90;;;;;;5029900;28;20444;-79
2023/12/16 05:41:50;;;;;;;7.53;6.07;;;6.60;99.90;;;;;;5031022;28;20449;-79
2023/12/16 05:44:17;;;;;;;6.00;5.50;;;6.70;99.90;;;;;;5028622;28;20454;-79
2023/12/16 05:46:44;;;;;;;6.00;5.30;;;6.60;99.90;;;;;;5023501;28;20458;-79
2023/12/16 05:49:10;;;;;;;5.40;5.00;;;6.60;99.90;;;;;;5021075;28;21004;-80
2023/12/16 05:51:42;;;;;;;4.90;4.50;;;6.60;99.90;;;;;;5018204;28;20484;-80
2023/12/16 05:54:09;;;;;;;5.77;5.17;;;6.60;99.90;;;;;;5019040;28;20513;-79
2023/12/16 05:56:35;;;;;;;4.67;4.27;;;6.60;99.90;;;;;;5018289;28;20855;-81
2023/12/16 05:59:01;;;;;;;6.87;6.17;;;6.50;99.90;;;;;;5019847;28;20547;-79
2023/12/16 06:01:28;;;;;;;5.33;4.93;;;6.50;99.90;;;;;;5020526;28;20483;-81
2023/12/16 06:03:55;;;;;;;5.73;5.23;;;6.50;99.90;;;;;;5018809;28;20672;-79
2023/12/16 06:06:21;;;;;;;5.90;5.40;;;6.60;99.90;;;;;;5016503;28;20499;-79
2023/12/16 06:08:50;;;;;;;5.60;5.20;;;6.60;99.90;;;;;;5019526;28;20440;-78
2023/12/16 06:11:16;;;;;;;5.83;5.33;;;6.60;99.90;;;;;;5018092;28;20493;-81
2023/12/16 06:13:43;;;;;;;6.03;5.50;;;6.60;99.90;;;;;;5019626;28;20484;-81
2023/12/16 06:16:14;;;;;;;5.70;5.20;;;6.60;99.90;;;;;;5019574;28;20447;-80
2023/12/16 06:18:41;;;;;;;6.70;5.67;;;6.60;99.90;;;;;;5017153;28;20439;-80
2023/12/16 06:21:09;;;;;;;5.80;5.37;;;6.60;99.90;;;;;;5017752;28;20670;-80
2023/12/16 06:23:36;;;;;;;5.80;5.33;;;6.60;99.90;;;;;;5019384;28;20448;-79
2023/12/16 06:26:04;;;;;;;5.77;5.17;;;6.60;99.90;;;;;;5019610;28;20922;-79
2023/12/16 06:28:31;;;;;;;5.53;5.10;;;6.50;99.90;;;;;;5018502;28;20904;-81
2023/12/16 06:30:57;;;;;;;6.40;5.80;;;6.50;99.90;;;;;;5019830;28;20464;-79
2023/12/16 06:33:24;;;;;;;6.73;5.57;;;6.50;99.90;;;;;;5015900;28;20439;-80
2023/12/16 06:35:51;;;;;;;6.40;5.13;;;6.50;99.90;;;;;;5018132;28;20437;-80
2023/12/16 06:38:18;;;;;;;6.67;6.10;;;6.50;99.90;;;;;;5019577;28;20451;-80
2023/12/16 06:40:45;;;;;;;7.10;6.50;;;6.50;99.90;;;;;;5018894;28;20464;-80
2023/12/16 06:43:13;;;;;;;6.00;5.50;;;6.50;99.90;;;;;;5023750;28;20466;-79
2023/12/16 06:45:40;;;;;;;7.03;6.43;;;6.50;99.90;;;;;;5035211;28;20475;-80
2023/12/16 06:48:06;;;;;;;6.17;5.67;;;6.50;99.90;;;;;;5035422;28;20443;-78
2023/12/16 06:50:33;;;;;;;5.47;5.07;;;6.50;99.90;;;;;;5035018;28;20598;-82
2023/12/16 06:53:00;;;;;;;7.10;6.50;;;6.50;99.90;;;;;;5037163;28;20432;-81
2023/12/16 06:55:26;;;;;;;8.93;7.37;;;6.50;99.90;;;;;;5036505;28;20479;-80
2023/12/16 06:57:53;;;;;;;13.03;8.33;;;6.70;99.90;;;;;;5036376;28;20423;-79
2023/12/16 07:00:21;;;;;;;8.80;7.70;;;6.80;99.90;;;;;;5024178;28;20463;-82
2023/12/16 07:02:48;;;;;;;6.50;5.87;;;6.90;99.90;;;;;;5018890;28;20454;-80
2023/12/16 07:05:14;;;;;;;6.03;5.53;;;6.80;99.90;;;;;;5018409;28;20491;-79
2023/12/16 07:07:41;;;;;;;5.77;5.27;;;6.70;99.90;;;;;;5019062;28;20458;-80
2023/12/16 07:10:09;;;;;;;5.70;5.20;;;6.50;99.90;;;;;;5016918;28;20467;-79
2023/12/16 07:12:35;;;;;;;6.53;5.20;;;6.40;99.90;;;;;;5017901;28;20443;-80
2023/12/16 07:15:02;;;;;;;6.27;5.67;;;6.40;99.90;;;;;;5019059;28;20513;-80
2023/12/16 07:17:31;;;;;;;6.20;5.60;;;6.40;99.90;;;;;;5016719;28;20447;-79
2023/12/16 07:19:57;;;;;;;6.13;5.63;;;6.40;99.90;;;;;;5017345;28;20463;-80
2023/12/16 07:22:24;;;;;;;6.73;6.13;;;6.40;99.90;;;;;;5015911;28;20510;-79
2023/12/16 07:24:51;;;;;;;6.70;6.20;;;6.40;99.90;;;;;;5017098;28;20614;-80
2023/12/16 07:27:17;;;;;;;6.77;6.17;;;6.40;99.90;;;;;;5015850;28;20424;-80
2023/12/16 07:29:44;;;;;;;7.07;6.47;;;6.40;99.90;;;;;;5015630;28;20463;-81
2023/12/16 07:32:11;;;;;;;9.90;7.70;;;6.40;99.90;;;;;;5016010;28;20474;-80
2023/12/16 07:34:40;;;;;;;6.40;5.40;;;6.50;99.90;;;;;;5015153;28;20975;-81
2023/12/16 07:37:07;;;;;;;5.77;5.37;;;6.50;99.90;;;;;;5015858;28;20440;-80
2023/12/16 07:39:33;;;;;;;6.00;5.50;;;6.50;99.90;;;;;;5015404;28;20502;-81
2023/12/16 07:42:00;;;;;;;6.67;6.07;;;6.50;99.90;;;;;;5029322;28;20440;-83
2023/12/16 07:44:28;;;;;;;6.73;6.23;;;6.50;99.90;;;;;;5029040;28;20499;-82
2023/12/16 07:46:55;;;;;;;7.40;6.70;;;6.50;99.90;;;;;;5015752;28;20963;-80
2023/12/16 07:49:25;;;;;;;7.53;6.90;;;6.50;99.90;;;;;;5014662;28;20829;-81
2023/12/16 07:51:54;;;;;;;7.23;6.63;;;6.50;99.90;;;;;;5015164;28;20447;-81
2023/12/16 07:54:22;;;;;;;7.37;6.67;;;6.50;99.90;;;;;;5017890;28;20477;-82
2023/12/16 07:56:49;;;;;;;7.00;6.37;;;6.50;99.90;;;;;;5027428;28;20467;-81
2023/12/16 07:59:15;;;;;;;8.30;6.60;;;6.50;99.90;;;;;;5029894;28;20478;-81
2023/12/16 08:01:42;;;;;;;7.17;6.57;;;6.40;99.90;;;;;;5024439;28;20578;-83
2023/12/16 08:04:09;;;;;;;6.80;6.20;;;6.40;99.90;;;;;;5016296;28;20451;-82
2023/12/16 08:06:37;;;;;;;7.60;6.90;;;6.50;99.90;;;;;;5016959;28;20490;-81
2023/12/16 08:09:05;;;;;;;7.90;7.10;;;6.50;99.90;;;;;;5017167;28;20440;-82
2023/12/16 08:11:33;;;;;;;7.50;6.90;;;6.50;99.90;;;;;;5016044;28;20456;-82
2023/12/16 08:14:00;;;;;;;7.23;6.53;;;6.50;99.90;;;;;;5016305;28;20443;-82
2023/12/16 08:16:27;;;;;;;7.33;6.60;;;6.50;99.90;;;;;;5016613;28;20442;-81
2023/12/16 08:18:53;;;;;;;7.37;6.67;;;6.50;99.90;;;;;;5015866;28;20446;-81
2023/12/16 08:21:20;;;;;;;7.63;6.43;;;6.50;99.90;;;;;;5015542;28;20556;-81
2023/12/16 08:23:47;;;;;;;8.13;7.13;;;6.50;99.90;;;;;;5015461;28;20449;-82
2023/12/16 08:26:15;;;;;;;6.73;6.10;;;6.50;99.90;;;;;;5018266;28;20858;-82
2023/12/16 08:28:42;;;;;;;8.10;6.53;;;6.50;99.90;;;;;;5021040;28;20478;-82
2023/12/16 08:31:09;;;;;;;13.50;12.13;;;6.60;99.90;;;;;;5019854;28;20468;-82
2023/12/16 08:33:36;;;;;;;8.73;7.87;;;6.60;99.90;;;;;;5016968;28;20506;-83
2023/12/16 08:36:02;;;;;;;8.50;7.60;;;6.60;99.90;;;;;;5016605;28;20519;-83
2023/12/16 08:38:30;;;;;;;8.00;6.67;;;6.60;99.90;;;;;;5017377;28;20447;-83
2023/12/16 08:40:57;;;;;;;6.20;5.60;;;6.60;99.90;;;;;;5018413;28;20475;-82
2023/12/16 08:43:25;;;;;;;7.40;6.70;;;6.60;99.90;;;;;;5019463;28;20444;-84
2023/12/16 08:45:52;;;;;;;7.10;6.40;;;6.70;99.90;;;;;;5026402;28;20446;-83
2023/12/16 08:48:19;;;;;;;6.87;6.27;;;6.70;99.90;;;;;;5025489;28;20446;-82
2023/12/16 08:50:45;;;;;;;8.40;7.10;;;6.70;99.90;;;;;;5021566;28;20472;-84
2023/12/16 08:53:12;;;;;;;6.73;6.13;;;6.70;99.90;;;;;;5019949;28;20443;-82
2023/12/16 08:55:41;;;;;;;10.87;6.43;;;6.70;99.90;;;;;;5019939;28;20475;-84
2023/12/16 08:58:08;;;;;;;7.47;6.87;;;6.70;99.90;;;;;;5024836;28;20476;-83
2023/12/16 09:00:36;;;;;;;7.03;6.43;;;6.70;99.90;;;;;;5020945;28;20468;-83
2023/12/16 09:03:03;;;;;;;8.97;7.33;;;6.80;99.90;;;;;;5026783;28;20445;-83
2023/12/16 09:05:31;;;;;;;7.43;6.73;;;6.80;99.90;;;;;;5021619;28;20466;-84
2023/12/16 09:07:57;;;;;;;7.90;7.10;;;6.70;99.90;;;;;;5020873;28;20508;-84
2023/12/16 09:10:24;;;;;;;9.50;8.60;;;6.80;99.90;;;;;;5020720;28;20451;-82
2023/12/16 09:12:51;;;;;;;8.53;7.90;;;6.70;99.90;;;;;;5020283;28;20448;-82
2023/12/16 09:15:17;;;;;;;12.17;8.10;;;6.70;99.90;;;;;;5019824;28;21116;-82
2023/12/16 09:17:47;;;;;;;9.27;8.47;;;6.70;99.90;;;;;;5019117;28;20436;-83
2023/12/16 09:20:14;;;;;;;10.00;8.20;;;6.70;99.90;;;;;;5019418;28;21055;-83
2023/12/16 09:22:42;;;;;;;7.60;6.97;;;6.80;99.90;;;;;;5022401;28;20439;-83
2023/12/16 09:25:17;;;;;;;8.53;7.63;;;6.80;99.90;;;;;;5024003;28;20439;-83
2023/12/16 09:27:44;;;;;;;8.57;7.80;;;6.90;99.90;;;;;;5024637;28;20431;-82
2023/12/16 09:30:13;;;;;;;8.20;7.50;;;6.80;99.90;;;;;;5022438;28;20491;-84
2023/12/16 09:32:47;;;;;;;10.00;8.73;;;6.80;99.90;;;;;;5023426;28;20454;-82
2023/12/16 09:35:14;;;;;;;8.13;7.30;;;6.90;99.90;;;;;;5024980;28;20533;-82
2023/12/16 09:37:42;;;;;;;7.43;6.73;;;6.80;99.90;;;;;;5025888;28;20452;-82
2023/12/16 09:40:10;;;;;;;9.00;7.23;;;6.90;99.90;;;;;;5029568;28;20459;-82
2023/12/16 09:42:38;;;;;;;8.80;7.90;;;6.60;99.90;;;;;;5028005;28;20455;-83
2023/12/16 09:45:09;;;;;;;8.73;7.93;;;7.00;99.90;;;;;;5026534;28;20445;-82
2023/12/16 09:47:37;;;;;;;8.60;7.80;;;7.00;99.90;;;;;;5026884;28;20457;-82
2023/12/16 09:50:07;;;;;;;9.03;8.13;;;7.00;99.90;;;;;;5026929;28;20481;-82
2023/12/16 09:52:35;;;;;;;8.77;7.93;;;7.00;99.90;;;;;;5028554;28;20483;-81
2023/12/16 09:55:04;;;;;;;8.83;8.00;;;7.10;99.90;;;;;;5026443;28;20954;-83
2023/12/16 09:57:35;;;;;;;8.20;7.50;;;6.90;99.90;;;;;;5025837;28;20453;-81
2023/12/16 10:00:05;;;;;;;8.60;7.80;;;7.00;99.90;;;;;;5026275;28;20530;-83
2023/12/16 10:02:33;;;;;;;7.80;7.10;;;7.00;99.90;;;;;;5025372;28;20431;-83
2023/12/16 10:05:03;;;;;;;10.00;7.20;;;7.00;99.90;;;;;;5025038;28;20459;-81
2023/12/16 10:07:32;;;;;;;8.40;7.70;;;7.10;99.90;;;;;;5024863;28;20450;-83
2023/12/16 10:10:00;;;;;;;9.00;8.07;;;7.00;99.90;;;;;;5024706;28;20556;-83
2023/12/16 10:12:34;;;;;;;8.30;7.60;;;7.10;99.90;;;;;;5025942;28;20438;-82
2023/12/16 10:15:05;;;;;;;8.03;7.33;;;7.20;99.90;;;;;;5024384;28;20472;-82
2023/12/16 10:17:33;;;;;;;10.10;9.20;;;7.00;99.90;;;;;;5026521;28;20478;-82
2023/12/16 10:20:04;;;;;;;9.33;8.50;;;7.00;99.90;;;;;;5029779;28;20483;-79
2023/12/16 10:22:40;;;;;;;8.50;7.80;;;7.00;99.90;;;;;;5031121;28;20449;-81
2023/12/16 10:25:08;;;;;;;8.93;8.13;;;7.00;99.90;;;;;;5029293;28;20456;-82
2023/12/16 10:27:36;;;;;;;9.90;9.00;;;7.20;99.90;;;;;;5032558;28;20481;-81
2023/12/16 10:30:05;;;;;;;9.63;8.40;;;7.20;99.90;;;;;;5028373;28;20457;-80
2023/12/16 10:32:34;;;;;;;9.03;8.13;;;7.20;99.90;;;;;;5028183;28;20463;-81
2023/12/16 10:35:06;;;;;;;9.07;8.17;;;7.30;99.90;;;;;;5031616;28;20947;-80
2023/12/16 10:37:48;;;;;;;9.17;8.27;;;7.40;99.90;;;;;;5031382;28;20465;-80
2023/12/16 10:40:16;;;;;;;9.10;8.30;;;7.40;99.90;;;;;;5033308;28;20487;-79
2023/12/16 10:42:47;;;;;;;11.10;8.60;;;7.50;99.90;;;;;;5033610;28;20435;-81
2023/12/16 10:45:15;;;;;;;9.50;8.60;;;7.50;99.90;;;;;;5036115;28;20466;-80
2023/12/16 10:47:48;;;;;;;15.27;9.00;;;7.60;99.90;;;;;;5034764;28;20516;-83
2023/12/16 10:50:17;;;;;;;10.33;9.13;;;7.70;99.90;;;;;;5034053;28;20484;-80
2023/12/16 10:52:56;;;;;;;9.87;8.97;;;7.70;99.90;;;;;;5030499;28;20694;-80
2023/12/16 10:55:31;;;;;;;9.33;8.53;;;7.70;99.90;;;;;;5032590;28;20502;-81
2023/12/16 10:58:09;;;;;;;9.00;8.20;;;7.80;99.90;;;;;;5028920;28;20474;-79
2023/12/16 11:00:43;;;;;;;9.53;8.67;;;7.90;99.90;;;;;;5028013;28;20474;-81
2023/12/16 11:03:30;;;;;;;;;;;;;;;;;;;;;
2023/12/16 11:06:08;;;;;;;10.60;7.77;;;7.40;99.90;;;;;;5023608;28;20459;-81
2023/12/16 11:08:40;;;;;;;9.87;8.97;;;7.60;99.90;;;;;;5022127;28;20452;-80
2023/12/16 11:11:08;;;;;;;9.60;8.70;;;7.60;99.90;;;;;;5022148;28;20476;-83
2023/12/16 11:13:36;;;;;;;7.20;6.50;;;7.80;99.90;;;;;;5024804;28;20457;-80
2023/12/16 11:16:16;;;;;;;8.53;7.70;;;7.70;99.90;;;;;;5023902;28;20502;-80
2023/12/16 11:18:50;;;;;;;9.53;8.53;;;7.60;99.90;;;;;;5026537;28;20456;-82
2023/12/16 11:21:22;;;;;;;8.47;7.60;;;7.90;99.90;;;;;;5025595;28;20463;-80
2023/12/16 11:23:51;;;;;;;8.40;7.60;;;7.90;99.90;;;;;;5022736;28;20455;-81
2023/12/16 11:26:22;;;;;;;9.03;8.23;;;8.00;99.90;;;;;;5020274;28;20448;-80
2023/12/16 11:28:54;;;;;;;9.70;8.47;;;8.00;99.90;;;;;;5024813;28;20482;-82
2023/12/16 11:31:27;;;;;;;9.10;8.07;;;7.80;99.90;;;;;;5024478;28;21060;-80
2023/12/16 11:33:55;;;;;;;10.73;7.73;;;7.70;99.90;;;;;;5025310;28;20427;-80
2023/12/16 11:36:52;;;;;;;9.60;7.47;;;7.80;99.90;;;;;;5024586;28;20484;-82
2023/12/16 11:39:44;;;;;;;10.43;7.70;;;8.00;99.90;;;;;;5022824;28;20456;-81
2023/12/16 11:42:15;;;;;;;9.17;7.10;;;7.70;99.90;;;;;;5024133;28;20450;-79
2023/12/16 11:44:50;;;;;;;9.70;7.90;;;7.90;99.90;;;;;;5026248;28;20448;-82
2023/12/16 11:47:26;;;;;;;9.10;8.00;;;7.90;99.90;;;;;;5025523;28;20913;-80
2023/12/16 11:50:01;;;;;;;9.90;8.50;;;8.00;99.90;;;;;;5026460;28;20463;-83
2023/12/16 11:52:32;;;;;;;9.57;7.40;;;8.20;99.90;;;;;;5026126;28;20450;-78
2023/12/16 11:55:01;;;;;;;8.17;7.37;;;8.30;99.90;;;;;;5026940;28;20783;-79
2023/12/16 11:57:30;;;;;;;9.77;8.33;;;8.40;99.90;;;;;;5027390;28;20477;-80
2023/12/16 11:59:58;;;;;;;8.43;7.60;;;8.40;99.90;;;;;;5025969;28;20461;-85
2023/12/16 12:02:26;;;;;;;10.90;7.90;;;8.30;99.90;;;;;;5026971;28;20458;-80
2023/12/16 12:04:54;;;;;;;10.20;7.50;;;8.20;99.90;;;;;;5030765;28;20452;-83
2023/12/16 12:07:24;;;;;;;9.90;7.40;;;8.30;99.90;;;;;;5033909;28;20447;-80
2023/12/16 12:09:52;;;;;;;12.90;7.17;;;8.30;99.90;;;;;;5033384;28;20459;-81
2023/12/16 12:12:25;;;;;;;8.47;7.20;;;8.50;99.90;;;;;;5029734;28;20454;-83
2023/12/16 12:14:53;;;;;;;8.77;7.70;;;8.20;99.90;;;;;;5026619;28;20457;-83
2023/12/16 12:17:24;;;;;;;12.67;8.03;;;8.60;99.90;;;;;;5026901;28;20486;-82
2023/12/16 12:19:51;;;;;;;12.70;9.10;;;8.70;99.90;;;;;;5023163;28;20495;-81
2023/12/16 12:22:28;;;;;;;9.30;7.03;;;8.70;99.90;;;;;;5028352;28;20451;-82
2023/12/16 12:25:04;;;;;;;8.57;7.40;;;8.60;99.90;;;;;;5023781;28;20510;-83
2023/12/16 12:27:36;;;;;;;9.43;8.40;;;8.60;99.90;;;;;;5026736;28;20450;-81
2023/12/16 12:30:06;;;;;;;10.20;8.17;;;8.60;99.90;;;;;;5025326;28;20557;-82
2023/12/16 12:32:34;;;;;;;7.93;7.00;;;8.40;99.90;;;;;;5024215;28;20479;-82
2023/12/16 12:35:05;;;;;;;8.73;7.83;;;8.60;99.90;;;;;;5022764;28;20450;-82
2023/12/16 12:37:44;;;;;;;10.93;8.10;;;8.70;99.90;;;;;;5022997;28;20483;-82
2023/12/16 12:40:25;;;;;;;9.93;8.60;;;8.90;99.90;;;;;;5025765;28;20462;-82
2023/12/16 12:45:44;;;;;;;13.10;7.53;;;8.90;99.90;;;;;;5021738;28;20451;-82
2023/12/16 12:48:17;;;;;;;8.40;7.60;;;8.90;99.90;;;;;;5024079;28;20431;-82
2023/12/16 12:50:47;;;;;;;9.97;8.37;;;8.80;99.90;;;;;;5022036;28;20475;-80
2023/12/16 12:53:25;;;;;;;10.77;8.60;;;8.90;99.90;;;;;;5023378;28;20447;-82
2023/12/16 12:55:56;;;;;;;9.10;6.60;;;9.00;99.90;;;;;;5022563;28;20505;-82
2023/12/16 12:58:35;;;;;;;9.40;7.37;;;9.10;99.90;;;;;;5023944;28;20490;-82
2023/12/16 13:01:12;;;;;;;8.90;6.30;;;9.10;99.90;;;;;;5021757;28;20566;-82